Terminal Aerodrome Forecast
Issued by NWS

Home | Current Version | Previous Version | Text Only | Print | Product List | Glossary On
Versions: 1 2 3 4 5 6 7 8 9 10 11 12 13 14 15 16 17 18 19 20 21 22 23 24 25 26
000
FTUS45 KGJT 311122
TAFVEL
TAF
KVEL 311122Z 3112/0112 28005KT P6SM SCT150
     FM311600 12004KT P6SM SCT150
     FM312000 22006KT P6SM VCTS FEW100CB SCT150
     FM010200 02005KT P6SM SCT120 BKN200=

USA.gov is the U.S. government's official web portal to all federal, state and local government web resources and services.